Time;durP1;ratioP1;P1;durP2;ratioP2;P2;SDS_P1;SDS_P2;PMS_P1;PMS_P2;Temp;Humidity;BMP_temperature;BMP_pressure;BME280_temperature;BME280_humidity;BME280_pressure;Samples;Min_cycle;Max_cycle;Signal;HPM_P1;HPM_P2
2023/01/19 00:01:36;;;;;;;1.98;1.88;;;;;;;;;;5078830;28;20207;-67
2023/01/19 00:04:04;;;;;;;1.88;1.77;;;;;;;;;;5077675;28;20224;-67
2023/01/19 00:06:34;;;;;;;2.00;1.80;;;;;;;;;;5078167;28;20212;-67
2023/01/19 00:09:03;;;;;;;1.98;1.88;;;;;;;;;;5064694;28;20201;-67
2023/01/19 00:11:31;;;;;;;2.10;1.90;;;;;;;;;;5077909;28;20224;-67
2023/01/19 00:13:59;;;;;;;2.00;1.80;;;;;;;;;;5058522;28;20197;-67
2023/01/19 00:16:26;;;;;;;1.98;1.80;;;;;;;;;;5061431;28;20619;-67
2023/01/19 00:18:54;;;;;;;1.95;1.75;;;;;;;;;;5077467;28;20222;-67
2023/01/19 00:21:23;;;;;;;2.20;2.00;;;;;;;;;;5078015;28;20200;-67
2023/01/19 00:23:51;;;;;;;1.90;1.70;;;;;;;;;;5078155;28;20259;-67
2023/01/19 00:26:22;;;;;;;1.90;1.80;;;;;;;;;;5078507;28;20212;-67
2023/01/19 00:28:50;;;;;;;2.20;2.00;;;;;;;;;;5078264;28;20204;-67
2023/01/19 00:31:20;;;;;;;2.70;1.80;;;;;;;;;;5077513;28;20231;-67
2023/01/19 00:33:50;;;;;;;2.00;1.90;;;;;;;;;;5078491;28;20231;-67
2023/01/19 00:36:18;;;;;;;2.05;1.70;;;;;;;;;;5077965;28;20204;-67
2023/01/19 00:38:46;;;;;;;2.17;2.08;;;;;;;;;;5078263;28;20211;-67
2023/01/19 00:41:14;;;;;;;2.35;2.15;;;;;;;;;;5079672;28;20204;-67
2023/01/19 00:43:42;;;;;;;2.58;2.03;;;;;;;;;;5079381;28;20223;-67
2023/01/19 00:46:10;;;;;;;2.20;2.00;;;;;;;;;;5080103;28;20203;-67
2023/01/19 00:48:39;;;;;;;1.90;1.80;;;;;;;;;;5079357;28;20262;-67
2023/01/19 00:51:07;;;;;;;2.20;2.05;;;;;;;;;;5079465;28;20231;-67
2023/01/19 00:53:36;;;;;;;2.00;1.80;;;;;;;;;;5079912;28;20211;-67
2023/01/19 00:56:05;;;;;;;2.22;2.03;;;;;;;;;;5074450;28;20276;-67
2023/01/19 00:58:34;;;;;;;2.00;1.90;;;;;;;;;;5030811;28;20198;-67
2023/01/19 01:01:07;;;;;;;1.80;1.70;;;;;;;;;;5059722;28;20274;-67
2023/01/19 01:03:37;;;;;;;2.20;2.00;;;;;;;;;;5045858;28;20221;-67
2023/01/19 01:06:07;;;;;;;2.17;1.98;;;;;;;;;;5020433;28;20232;-67
2023/01/19 01:08:35;;;;;;;2.13;1.92;;;;;;;;;;5030194;28;20566;-67
2023/01/19 01:11:04;;;;;;;2.30;2.10;;;;;;;;;;5040746;28;20202;-66
2023/01/19 01:13:36;;;;;;;2.40;2.20;;;;;;;;;;5022252;28;20260;-67
2023/01/19 01:16:06;;;;;;;2.25;2.05;;;;;;;;;;5030345;28;20485;-67
2023/01/19 01:18:41;;;;;;;2.40;2.20;;;;;;;;;;5040193;28;20202;-68
2023/01/19 01:21:14;;;;;;;2.47;2.28;;;;;;;;;;5037180;28;20197;-68
2023/01/19 01:23:42;;;;;;;2.13;2.00;;;;;;;;;;5039929;28;20221;-68
2023/01/19 01:26:10;;;;;;;2.47;2.28;;;;;;;;;;5021261;28;20546;-69
2023/01/19 01:28:38;;;;;;;2.50;2.30;;;;;;;;;;5038333;28;20198;-68
2023/01/19 01:31:09;;;;;;;2.40;2.20;;;;;;;;;;5024683;28;20198;-68
2023/01/19 01:33:37;;;;;;;2.33;2.13;;;;;;;;;;5031886;28;20289;-68
2023/01/19 01:36:06;;;;;;;2.17;2.03;;;;;;;;;;5029230;28;20225;-68
2023/01/19 01:38:35;;;;;;;2.30;2.10;;;;;;;;;;5024634;28;20207;-68
2023/01/19 01:41:03;;;;;;;2.35;2.15;;;;;;;;;;5020228;28;20206;-68
2023/01/19 01:43:44;;;;;;;2.28;2.10;;;;;;;;;;5020608;28;20230;-68
2023/01/19 01:46:15;;;;;;;2.78;2.58;;;;;;;;;;5025684;28;20209;-67
2023/01/19 01:48:45;;;;;;;2.55;2.35;;;;;;;;;;5039574;28;20504;-67
2023/01/19 01:51:26;;;;;;;2.50;2.30;;;;;;;;;;5021413;28;20273;-67
2023/01/19 01:54:12;;;;;;;2.55;2.35;;;;;;;;;;5022509;28;20372;-67
2023/01/19 01:56:42;;;;;;;2.20;2.00;;;;;;;;;;5038731;28;20224;-67
2023/01/19 01:59:24;;;;;;;2.60;2.40;;;;;;;;;;5053493;28;20197;-67
2023/01/19 02:04:40;;;;;;;2.45;2.25;;;;;;;;;;5020291;28;20288;-67
2023/01/19 02:15:23;;;;;;;2.60;2.40;;;;;;;;;;5019895;28;20660;-67
2023/01/19 02:17:53;;;;;;;2.50;2.30;;;;;;;;;;5029671;28;20230;-67
2023/01/19 02:20:23;;;;;;;2.65;2.45;;;;;;;;;;5026679;28;20220;-67
2023/01/19 02:22:52;;;;;;;2.40;2.20;;;;;;;;;;5020246;28;20250;-68
2023/01/19 02:25:21;;;;;;;2.80;2.60;;;;;;;;;;5020623;28;20210;-67
2023/01/19 02:27:49;;;;;;;2.80;2.60;;;;;;;;;;5020791;28;20301;-67
2023/01/19 02:30:18;;;;;;;2.55;2.35;;;;;;;;;;5035006;28;20201;-67
2023/01/19 02:32:46;;;;;;;2.90;2.60;;;;;;;;;;5028849;28;20202;-67
2023/01/19 02:35:14;;;;;;;2.70;2.50;;;;;;;;;;5060308;28;20308;-67
2023/01/19 02:37:41;;;;;;;3.03;2.72;;;;;;;;;;5051773;28;20198;-67
2023/01/19 02:40:12;;;;;;;2.88;2.67;;;;;;;;;;5040158;28;20555;-67
2023/01/19 02:42:44;;;;;;;2.65;2.45;;;;;;;;;;5040492;28;20550;-67
2023/01/19 02:45:13;;;;;;;2.53;2.33;;;;;;;;;;5040418;28;20205;-67
2023/01/19 02:47:41;;;;;;;2.67;2.47;;;;;;;;;;5040322;28;20213;-67
2023/01/19 02:50:23;;;;;;;2.85;2.55;;;;;;;;;;5050833;28;20283;-67
2023/01/19 02:52:52;;;;;;;2.83;2.55;;;;;;;;;;5059777;28;20205;-67
2023/01/19 02:55:23;;;;;;;2.80;2.60;;;;;;;;;;5059724;28;20209;-67
2023/01/19 02:58:00;;;;;;;2.75;2.55;;;;;;;;;;5059546;28;20228;-67
2023/01/19 03:00:33;;;;;;;2.70;2.50;;;;;;;;;;5060009;28;20224;-67
2023/01/19 03:03:09;;;;;;;3.05;2.75;;;;;;;;;;5056537;28;20236;-67
2023/01/19 03:05:46;;;;;;;2.78;2.58;;;;;;;;;;5026250;28;20239;-67
2023/01/19 03:08:16;;;;;;;2.88;2.65;;;;;;;;;;5039943;28;20206;-67
2023/01/19 03:10:47;;;;;;;2.78;2.58;;;;;;;;;;5024224;28;20203;-66
2023/01/19 03:13:20;;;;;;;2.70;2.45;;;;;;;;;;5019743;28;20261;-67
2023/01/19 03:15:49;;;;;;;3.00;2.80;;;;;;;;;;5027280;28;20206;-66
2023/01/19 03:18:20;;;;;;;2.70;2.50;;;;;;;;;;5019257;28;20211;-67
2023/01/19 03:20:48;;;;;;;3.25;2.90;;;;;;;;;;5020743;28;20265;-66
2023/01/19 03:23:16;;;;;;;3.00;2.80;;;;;;;;;;5032200;28;20218;-67
2023/01/19 03:25:45;;;;;;;3.17;2.97;;;;;;;;;;5029759;28;20348;-67
2023/01/19 03:28:14;;;;;;;3.00;2.67;;;;;;;;;;5034774;28;20248;-66
2023/01/19 03:30:45;;;;;;;3.17;2.90;;;;;;;;;;5020169;28;20202;-67
2023/01/19 03:33:15;;;;;;;3.25;2.95;;;;;;;;;;5034086;28;20466;-67
2023/01/19 03:35:45;;;;;;;3.28;2.97;;;;;;;;;;5038821;28;20244;-66
2023/01/19 03:38:16;;;;;;;3.28;3.03;;;;;;;;;;5025051;28;20210;-67
2023/01/19 03:40:44;;;;;;;2.72;2.53;;;;;;;;;;5037114;28;20201;-67
2023/01/19 03:43:12;;;;;;;3.15;2.85;;;;;;;;;;5019644;28;20670;-67
2023/01/19 03:45:40;;;;;;;2.67;2.47;;;;;;;;;;5023138;28;20292;-67
2023/01/19 03:48:09;;;;;;;3.00;2.80;;;;;;;;;;5022879;28;20237;-66
2023/01/19 03:50:37;;;;;;;2.80;2.60;;;;;;;;;;5036033;28;20552;-67
2023/01/19 03:53:09;;;;;;;3.15;2.85;;;;;;;;;;5032639;28;20285;-67
2023/01/19 03:55:37;;;;;;;2.92;2.70;;;;;;;;;;5027975;28;20613;-67
2023/01/19 03:58:05;;;;;;;2.90;2.70;;;;;;;;;;5078178;28;20201;-67
2023/01/19 04:00:35;;;;;;;3.28;3.00;;;;;;;;;;5077110;28;20197;-67
2023/01/19 04:03:03;;;;;;;3.25;2.95;;;;;;;;;;5078455;28;20204;-67
2023/01/19 04:05:32;;;;;;;3.28;2.97;;;;;;;;;;5077896;28;20307;-67
2023/01/19 04:08:00;;;;;;;3.13;2.83;;;;;;;;;;5077797;28;20708;-66
2023/01/19 04:10:28;;;;;;;3.30;3.00;;;;;;;;;;5077402;28;20239;-66
2023/01/19 04:12:59;;;;;;;3.25;2.95;;;;;;;;;;5078264;28;20211;-67
2023/01/19 04:15:29;;;;;;;3.33;3.03;;;;;;;;;;5077839;28;20196;-66
2023/01/19 04:17:58;;;;;;;3.20;2.90;;;;;;;;;;5077408;28;20244;-67
2023/01/19 04:20:27;;;;;;;3.13;2.92;;;;;;;;;;5077277;28;20665;-67
2023/01/19 04:22:56;;;;;;;3.50;3.20;;;;;;;;;;5077773;28;20500;-67
2023/01/19 04:25:24;;;;;;;3.40;3.10;;;;;;;;;;5076910;28;20212;-66
2023/01/19 04:27:53;;;;;;;3.00;2.78;;;;;;;;;;5077397;28;20204;-67
2023/01/19 04:30:21;;;;;;;3.05;2.83;;;;;;;;;;5076951;28;20201;-67
2023/01/19 04:32:50;;;;;;;3.22;3.03;;;;;;;;;;5077094;28;21188;-66
2023/01/19 04:35:18;;;;;;;2.90;2.70;;;;;;;;;;5076867;28;20495;-67
2023/01/19 04:37:46;;;;;;;2.97;2.78;;;;;;;;;;5077240;28;20283;-67
2023/01/19 04:40:15;;;;;;;3.00;2.80;;;;;;;;;;5076524;28;20210;-67
2023/01/19 04:42:44;;;;;;;3.05;2.85;;;;;;;;;;5077035;28;20204;-67
2023/01/19 04:45:13;;;;;;;3.20;2.90;;;;;;;;;;5076861;28;20228;-66
2023/01/19 04:47:41;;;;;;;3.35;3.05;;;;;;;;;;5076869;28;20211;-66
2023/01/19 04:50:09;;;;;;;3.10;2.88;;;;;;;;;;5076973;28;20656;-67
2023/01/19 04:52:37;;;;;;;3.22;2.92;;;;;;;;;;5077113;28;20296;-66
2023/01/19 04:55:05;;;;;;;3.40;3.10;;;;;;;;;;5077164;28;20207;-67
2023/01/19 04:57:34;;;;;;;3.33;3.03;;;;;;;;;;5060400;28;20244;-67
2023/01/19 05:00:03;;;;;;;3.05;2.85;;;;;;;;;;5057638;28;20558;-67
2023/01/19 05:02:30;;;;;;;3.30;3.00;;;;;;;;;;5056821;28;20232;-67
2023/01/19 05:04:57;;;;;;;3.03;2.72;;;;;;;;;;5056256;28;20225;-66
2023/01/19 05:07:25;;;;;;;2.80;2.60;;;;;;;;;;5056572;28;20796;-66
2023/01/19 05:09:52;;;;;;;2.90;2.70;;;;;;;;;;5032628;28;20194;-66
2023/01/19 05:12:20;;;;;;;2.83;2.63;;;;;;;;;;5020745;28;20638;-67
2023/01/19 05:14:49;;;;;;;3.08;2.83;;;;;;;;;;5016850;28;20199;-67
2023/01/19 05:17:16;;;;;;;3.40;3.10;;;;;;;;;;5018533;28;20202;-66
2023/01/19 05:19:43;;;;;;;3.15;2.90;;;;;;;;;;5030183;28;20281;-67
2023/01/19 05:22:11;;;;;;;3.33;3.03;;;;;;;;;;5026388;28;20301;-66
2023/01/19 05:24:38;;;;;;;2.97;2.78;;;;;;;;;;5036419;28;20312;-66
2023/01/19 05:27:06;;;;;;;3.22;2.92;;;;;;;;;;5019658;28;20289;-66
2023/01/19 05:29:33;;;;;;;2.65;2.45;;;;;;;;;;5026675;28;20202;-66
2023/01/19 05:32:02;;;;;;;3.30;3.00;;;;;;;;;;5024290;28;20670;-66
2023/01/19 05:34:29;;;;;;;2.95;2.75;;;;;;;;;;5017090;28;20199;-66
2023/01/19 05:36:57;;;;;;;2.83;2.63;;;;;;;;;;5018331;28;20479;-67
2023/01/19 05:39:25;;;;;;;3.10;2.83;;;;;;;;;;5023563;28;20245;-66
2023/01/19 05:41:53;;;;;;;3.00;2.80;;;;;;;;;;5034967;28;20571;-67
2023/01/19 05:44:21;;;;;;;3.17;2.88;;;;;;;;;;5025669;28;20288;-67
2023/01/19 05:46:48;;;;;;;2.95;2.75;;;;;;;;;;5020463;28;20206;-67
2023/01/19 05:49:17;;;;;;;2.90;2.70;;;;;;;;;;5020735;28;20268;-67
2023/01/19 05:51:45;;;;;;;3.10;2.80;;;;;;;;;;5026747;28;20289;-67
2023/01/19 05:54:13;;;;;;;2.90;2.70;;;;;;;;;;5019128;28;20282;-67
2023/01/19 05:56:41;;;;;;;3.10;2.80;;;;;;;;;;5035495;28;20240;-67
2023/01/19 05:59:08;;;;;;;2.97;2.78;;;;;;;;;;5076976;28;20198;-67
2023/01/19 06:01:36;;;;;;;3.10;2.80;;;;;;;;;;5077964;28;20274;-67
2023/01/19 06:04:04;;;;;;;2.88;2.65;;;;;;;;;;5078143;28;20259;-67
2023/01/19 06:06:32;;;;;;;2.90;2.70;;;;;;;;;;5078413;28;20207;-67
2023/01/19 06:09:00;;;;;;;2.92;2.70;;;;;;;;;;5076362;28;20634;-67
2023/01/19 06:11:27;;;;;;;3.10;2.80;;;;;;;;;;5076422;28;20276;-67
2023/01/19 06:13:55;;;;;;;3.58;2.70;;;;;;;;;;5078124;28;20264;-67
2023/01/19 06:16:22;;;;;;;2.70;2.50;;;;;;;;;;5077107;28;20361;-67
2023/01/19 06:18:49;;;;;;;2.67;2.38;;;;;;;;;;5077529;28;20203;-67
2023/01/19 06:21:17;;;;;;;2.60;2.40;;;;;;;;;;5076923;28;20227;-67
2023/01/19 06:23:46;;;;;;;2.85;2.65;;;;;;;;;;5077156;28;20201;-66
2023/01/19 06:26:13;;;;;;;2.85;2.60;;;;;;;;;;5076919;28;20238;-67
2023/01/19 06:28:41;;;;;;;2.90;2.70;;;;;;;;;;5077009;28;20197;-67
2023/01/19 06:31:08;;;;;;;2.97;2.70;;;;;;;;;;5077066;28;20204;-67
2023/01/19 06:33:35;;;;;;;2.42;2.22;;;;;;;;;;5059319;28;20200;-67
2023/01/19 06:36:03;;;;;;;2.67;2.47;;;;;;;;;;5078118;28;20200;-66
2023/01/19 06:38:31;;;;;;;3.03;2.67;;;;;;;;;;5077857;28;20204;-66
2023/01/19 06:41:01;;;;;;;3.10;2.78;;;;;;;;;;5076856;28;20196;-67
2023/01/19 06:43:30;;;;;;;2.92;2.60;;;;;;;;;;5076880;28;20250;-67
2023/01/19 06:45:59;;;;;;;4.28;3.03;;;;;;;;;;5075544;28;20582;-67
2023/01/19 06:48:26;;;;;;;3.47;2.80;;;;;;;;;;5075639;28;20693;-66
2023/01/19 06:50:54;;;;;;;4.28;2.97;;;;;;;;;;5076067;28;20236;-67
2023/01/19 06:53:21;;;;;;;4.65;3.00;;;;;;;;;;5075864;28;20559;-67
2023/01/19 06:55:49;;;;;;;4.70;3.40;;;;;;;;;;5074825;28;20299;-67
2023/01/19 06:58:17;;;;;;;3.40;3.10;;;;;;;;;;5077113;28;20208;-66
2023/01/19 07:00:45;;;;;;;3.10;2.80;;;;;;;;;;5076258;28;20200;-67
2023/01/19 07:03:18;;;;;;;3.67;3.17;;;;;;;;;;5076747;28;20206;-67
2023/01/19 07:05:48;;;;;;;3.83;2.97;;;;;;;;;;5076877;28;20220;-66
2023/01/19 07:08:16;;;;;;;4.05;3.25;;;;;;;;;;5076148;28;20201;-66
2023/01/19 07:10:43;;;;;;;5.05;3.63;;;;;;;;;;5076805;28;20207;-66
2023/01/19 07:13:11;;;;;;;5.30;3.47;;;;;;;;;;5076952;28;20207;-66
2023/01/19 07:15:39;;;;;;;4.97;3.20;;;;;;;;;;5076861;28;20197;-66
2023/01/19 07:18:08;;;;;;;4.05;2.83;;;;;;;;;;5076455;28;20242;-66
2023/01/19 07:20:36;;;;;;;4.25;2.95;;;;;;;;;;5076170;28;20202;-67
2023/01/19 07:23:03;;;;;;;4.95;3.40;;;;;;;;;;5076581;28;20474;-66
2023/01/19 07:25:31;;;;;;;3.25;2.85;;;;;;;;;;5077083;28;20327;-66
2023/01/19 07:27:59;;;;;;;3.40;2.78;;;;;;;;;;5076696;28;20200;-67
2023/01/19 07:30:26;;;;;;;4.35;3.25;;;;;;;;;;5075254;28;20200;-67
2023/01/19 07:32:57;;;;;;;6.10;3.38;;;;;;;;;;5075892;28;20200;-66
2023/01/19 07:35:24;;;;;;;4.55;3.67;;;;;;;;;;5076779;28;20602;-66
2023/01/19 07:37:52;;;;;;;4.50;3.15;;;;;;;;;;5076844;28;20210;-66
2023/01/19 07:40:19;;;;;;;4.60;3.38;;;;;;;;;;5076362;28;20211;-66
2023/01/19 07:42:47;;;;;;;3.40;2.92;;;;;;;;;;5075906;28;20204;-66
2023/01/19 07:45:15;;;;;;;4.32;2.95;;;;;;;;;;5074787;28;20617;-66
2023/01/19 07:47:43;;;;;;;4.72;3.67;;;;;;;;;;5076134;28;20531;-66
2023/01/19 07:50:13;;;;;;;3.70;2.80;;;;;;;;;;5075802;28;20291;-66
2023/01/19 07:52:41;;;;;;;4.57;3.40;;;;;;;;;;5075072;28;20200;-66
2023/01/19 07:55:08;;;;;;;4.35;3.38;;;;;;;;;;5074370;28;20203;-66
2023/01/19 07:57:36;;;;;;;3.88;3.40;;;;;;;;;;5075579;28;20502;-66
2023/01/19 08:00:05;;;;;;;15.18;12.82;;;;;;;;;;5075913;28;20477;-66
2023/01/19 08:02:34;;;;;;;17.00;14.93;;;;;;;;;;5074808;28;20230;-66
2023/01/19 08:05:02;;;;;;;14.15;12.23;;;;;;;;;;5073986;28;20316;-66
2023/01/19 08:07:31;;;;;;;13.90;10.57;;;;;;;;;;5075142;28;20207;-66
2023/01/19 08:09:58;;;;;;;11.02;9.73;;;;;;;;;;5074846;28;20287;-66
2023/01/19 08:12:25;;;;;;;11.68;10.27;;;;;;;;;;5074883;28;20283;-66
2023/01/19 08:14:53;;;;;;;11.65;9.35;;;;;;;;;;5075964;28;20199;-66
2023/01/19 08:17:20;;;;;;;11.05;8.70;;;;;;;;;;5074959;28;20196;-66
2023/01/19 08:19:47;;;;;;;10.48;8.98;;;;;;;;;;5074835;28;20207;-66
2023/01/19 08:22:15;;;;;;;9.18;8.23;;;;;;;;;;5074832;28;20496;-66
2023/01/19 08:24:44;;;;;;;9.25;7.90;;;;;;;;;;5075362;28;20283;-66
2023/01/19 08:27:11;;;;;;;8.82;7.85;;;;;;;;;;5074839;28;20196;-66
2023/01/19 08:29:39;;;;;;;8.25;7.45;;;;;;;;;;5075252;28;20204;-66
2023/01/19 08:32:06;;;;;;;8.15;7.35;;;;;;;;;;5076008;28;20303;-66
2023/01/19 08:34:34;;;;;;;7.85;6.70;;;;;;;;;;5075505;28;20291;-66
2023/01/19 08:37:01;;;;;;;8.00;6.80;;;;;;;;;;5075640;28;20283;-67
2023/01/19 08:39:28;;;;;;;7.50;6.60;;;;;;;;;;5075021;28;20203;-66
2023/01/19 08:41:59;;;;;;;8.55;6.28;;;;;;;;;;5076105;28;20563;-66
2023/01/19 08:44:27;;;;;;;6.97;6.28;;;;;;;;;;5074808;28;20211;-66
2023/01/19 08:46:54;;;;;;;7.20;6.50;;;;;;;;;;5075325;28;20336;-66
2023/01/19 08:49:21;;;;;;;6.25;5.65;;;;;;;;;;5075624;28;20211;-66
2023/01/19 08:51:49;;;;;;;8.05;5.63;;;;;;;;;;5075445;28;20313;-67
2023/01/19 08:54:16;;;;;;;6.32;5.68;;;;;;;;;;5075561;28;20303;-66
2023/01/19 08:56:44;;;;;;;6.55;5.50;;;;;;;;;;5075373;28;20236;-66
2023/01/19 08:59:12;;;;;;;6.05;5.03;;;;;;;;;;5075199;28;20211;-66
2023/01/19 09:01:40;;;;;;;5.78;4.80;;;;;;;;;;5075257;28;20295;-66
2023/01/19 09:04:07;;;;;;;5.32;4.80;;;;;;;;;;5074838;28;20283;-67
2023/01/19 09:06:35;;;;;;;5.30;4.75;;;;;;;;;;5074473;28;20351;-66
2023/01/19 09:09:02;;;;;;;5.38;4.88;;;;;;;;;;5073739;28;20780;-66
2023/01/19 09:11:30;;;;;;;4.93;4.40;;;;;;;;;;5075256;28;20192;-67
2023/01/19 09:13:57;;;;;;;5.38;4.78;;;;;;;;;;5074789;28;20204;-67
2023/01/19 09:16:28;;;;;;;4.82;4.40;;;;;;;;;;5074521;28;20196;-67
2023/01/19 09:18:55;;;;;;;5.30;4.80;;;;;;;;;;5074396;28;20325;-66
2023/01/19 09:21:23;;;;;;;5.10;4.40;;;;;;;;;;5074549;28;20807;-66
2023/01/19 09:23:50;;;;;;;4.80;4.32;;;;;;;;;;5074198;28;20291;-66
2023/01/19 09:26:17;;;;;;;4.57;4.18;;;;;;;;;;5074495;28;20319;-66
2023/01/19 09:28:45;;;;;;;4.30;3.92;;;;;;;;;;5074653;28;20303;-66
2023/01/19 09:31:13;;;;;;;4.50;4.10;;;;;;;;;;5074246;28;20196;-66
2023/01/19 09:33:42;;;;;;;4.63;4.13;;;;;;;;;;5074237;28;20287;-67
2023/01/19 09:36:10;;;;;;;4.53;4.13;;;;;;;;;;5073307;28;20276;-67
2023/01/19 09:38:37;;;;;;;4.18;3.78;;;;;;;;;;5073583;28;20518;-66
2023/01/19 09:41:13;;;;;;;4.30;3.90;;;;;;;;;;5074144;28;20759;-67
2023/01/19 09:43:44;;;;;;;5.13;4.00;;;;;;;;;;5074201;28;20246;-67
2023/01/19 09:46:14;;;;;;;4.00;3.60;;;;;;;;;;5074257;28;20227;-67
2023/01/19 09:48:46;;;;;;;4.18;3.80;;;;;;;;;;5074315;28;20200;-66
2023/01/19 09:51:16;;;;;;;3.72;3.42;;;;;;;;;;5073743;28;20659;-66
2023/01/19 09:53:51;;;;;;;4.25;3.85;;;;;;;;;;5074432;28;20474;-66
2023/01/19 09:56:20;;;;;;;3.83;3.40;;;;;;;;;;5068298;28;20224;-67
2023/01/19 09:58:48;;;;;;;3.85;3.53;;;;;;;;;;5054125;28;20289;-66
2023/01/19 10:01:23;;;;;;;4.00;3.60;;;;;;;;;;5053612;28;20219;-66
2023/01/19 10:03:55;;;;;;;3.78;3.40;;;;;;;;;;5024325;28;20237;-66
2023/01/19 10:06:22;;;;;;;3.80;3.40;;;;;;;;;;5021505;28;21832;-66
2023/01/19 10:08:53;;;;;;;4.18;3.78;;;;;;;;;;5016456;28;20246;-67
2023/01/19 10:11:31;;;;;;;4.18;3.78;;;;;;;;;;5033346;28;20212;-66
2023/01/19 10:13:59;;;;;;;3.75;3.40;;;;;;;;;;5032665;28;20642;-67
2023/01/19 10:16:32;;;;;;;4.30;3.80;;;;;;;;;;5033735;28;20237;-66
2023/01/19 10:19:03;;;;;;;4.00;3.60;;;;;;;;;;5014450;28;20199;-67
2023/01/19 10:21:34;;;;;;;4.05;3.65;;;;;;;;;;5015730;28;20280;-66
2023/01/19 10:24:05;;;;;;;3.47;3.17;;;;;;;;;;5014036;28;20203;-66
2023/01/19 10:26:35;;;;;;;3.85;3.50;;;;;;;;;;5015293;28;20230;-66
2023/01/19 10:29:03;;;;;;;3.70;3.40;;;;;;;;;;5030252;28;20497;-66
2023/01/19 10:31:32;;;;;;;3.50;3.20;;;;;;;;;;5018109;28;20203;-66
2023/01/19 10:33:59;;;;;;;3.45;3.15;;;;;;;;;;5028049;28;20292;-67
2023/01/19 10:36:29;;;;;;;3.95;3.53;;;;;;;;;;5058754;28;20497;-67
2023/01/19 10:38:56;;;;;;;3.78;3.47;;;;;;;;;;5042668;28;20606;-67
2023/01/19 10:41:27;;;;;;;4.07;3.65;;;;;;;;;;5054094;28;20229;-66
2023/01/19 10:44:00;;;;;;;3.80;3.40;;;;;;;;;;5053392;28;20796;-67
2023/01/19 10:46:31;;;;;;;3.58;3.28;;;;;;;;;;5037922;28;20261;-66
2023/01/19 10:48:59;;;;;;;3.97;3.63;;;;;;;;;;5038307;28;20205;-66
2023/01/19 10:51:28;;;;;;;3.70;3.33;;;;;;;;;;5037984;28;20264;-66
2023/01/19 10:53:59;;;;;;;3.85;3.55;;;;;;;;;;5037325;28;20201;-67
2023/01/19 10:56:29;;;;;;;3.60;3.30;;;;;;;;;;5043815;28;20225;-66
2023/01/19 10:58:56;;;;;;;4.07;3.75;;;;;;;;;;5057376;28;20292;-66
2023/01/19 11:01:25;;;;;;;3.72;3.42;;;;;;;;;;5056262;28;20299;-67
2023/01/19 11:03:53;;;;;;;3.50;3.20;;;;;;;;;;5057013;28;20692;-66
2023/01/19 11:06:24;;;;;;;3.70;3.40;;;;;;;;;;5056405;28;20235;-66
2023/01/19 11:08:54;;;;;;;3.80;3.50;;;;;;;;;;5039019;28;20637;-66
2023/01/19 11:11:22;;;;;;;4.05;3.72;;;;;;;;;;5036580;28;20300;-67
2023/01/19 11:14:03;;;;;;;6.28;3.95;;;;;;;;;;5036228;28;20212;-66
2023/01/19 11:16:33;;;;;;;3.90;3.50;;;;;;;;;;5035942;28;20633;-66
2023/01/19 11:19:02;;;;;;;4.03;3.70;;;;;;;;;;5023238;28;20571;-66
2023/01/19 11:21:31;;;;;;;4.40;3.83;;;;;;;;;;5016880;28;20198;-67
2023/01/19 11:24:01;;;;;;;4.32;3.60;;;;;;;;;;5017039;28;20238;-67
2023/01/19 11:26:30;;;;;;;4.95;4.15;;;;;;;;;;5020782;28;20304;-66
2023/01/19 11:28:59;;;;;;;4.13;3.72;;;;;;;;;;5024221;28;20209;-66
2023/01/19 11:31:33;;;;;;;4.00;3.60;;;;;;;;;;5016988;28;20202;-67
2023/01/19 11:34:02;;;;;;;4.72;3.63;;;;;;;;;;5034143;28;20189;-67
2023/01/19 11:36:30;;;;;;;5.10;4.05;;;;;;;;;;5035182;28;20201;-66
2023/01/19 11:38:58;;;;;;;4.10;3.70;;;;;;;;;;5035214;28;20202;-67
2023/01/19 11:41:29;;;;;;;4.40;4.00;;;;;;;;;;5033463;28;20288;-67
2023/01/19 11:43:58;;;;;;;3.75;3.45;;;;;;;;;;5034496;28;20221;-67
2023/01/19 11:46:27;;;;;;;3.72;3.38;;;;;;;;;;5026259;28;20222;-67
2023/01/19 11:49:00;;;;;;;4.60;4.20;;;;;;;;;;5028306;28;20292;-67
2023/01/19 11:51:30;;;;;;;3.97;3.67;;;;;;;;;;5035146;28;20213;-66
2023/01/19 11:53:57;;;;;;;3.95;3.58;;;;;;;;;;5017111;28;20606;-66
2023/01/19 11:56:27;;;;;;;3.70;3.25;;;;;;;;;;5024486;28;20228;-67
2023/01/19 11:58:56;;;;;;;4.18;3.75;;;;;;;;;;5069229;28;20196;-67
2023/01/19 12:01:25;;;;;;;3.67;3.38;;;;;;;;;;5074747;28;20307;-67
2023/01/19 12:03:55;;;;;;;3.92;3.63;;;;;;;;;;5065829;28;20616;-66
2023/01/19 12:06:27;;;;;;;4.15;3.33;;;;;;;;;;5075009;28;20315;-67
2023/01/19 12:08:56;;;;;;;4.13;3.72;;;;;;;;;;5074390;28;20200;-67
2023/01/19 12:11:25;;;;;;;5.47;3.70;;;;;;;;;;5070746;28;20287;-67
2023/01/19 12:13:53;;;;;;;3.55;3.25;;;;;;;;;;5074333;28;20596;-66
2023/01/19 12:16:23;;;;;;;3.78;3.47;;;;;;;;;;5075076;28;20287;-67
2023/01/19 12:18:53;;;;;;;3.95;3.55;;;;;;;;;;5073617;28;20277;-66
2023/01/19 12:21:20;;;;;;;4.20;3.80;;;;;;;;;;5074654;28;20303;-67
2023/01/19 12:23:51;;;;;;;3.78;3.38;;;;;;;;;;5073375;28;20210;-66
2023/01/19 12:26:37;;;;;;;3.70;3.40;;;;;;;;;;5074606;28;20259;-67
2023/01/19 12:29:06;;;;;;;3.40;3.10;;;;;;;;;;5073676;28;20208;-67
2023/01/19 12:31:35;;;;;;;3.50;3.13;;;;;;;;;;5074396;28;20768;-66
2023/01/19 12:34:21;;;;;;;3.55;3.22;;;;;;;;;;5073320;28;20243;-66
2023/01/19 12:36:49;;;;;;;4.05;3.70;;;;;;;;;;5074342;28;20196;-67
2023/01/19 12:39:18;;;;;;;3.30;3.00;;;;;;;;;;5074613;28;20200;-67
2023/01/19 12:41:46;;;;;;;3.28;2.97;;;;;;;;;;5074190;28;20204;-67
2023/01/19 12:44:20;;;;;;;3.40;3.00;;;;;;;;;;5073313;28;20243;-67
2023/01/19 12:46:49;;;;;;;3.55;3.25;;;;;;;;;;5074730;28;20322;-67
2023/01/19 12:49:21;;;;;;;3.60;3.30;;;;;;;;;;5073001;28;20214;-67
2023/01/19 12:51:50;;;;;;;4.35;3.40;;;;;;;;;;5073244;28;20197;-67
2023/01/19 12:54:21;;;;;;;3.33;3.03;;;;;;;;;;5073571;28;20197;-66
2023/01/19 12:56:48;;;;;;;3.35;3.05;;;;;;;;;;5073691;28;20770;-67
2023/01/19 12:59:24;;;;;;;3.30;3.10;;;;;;;;;;5074318;28;20354;-66
2023/01/19 13:02:10;;;;;;;3.40;3.10;;;;;;;;;;5074118;28;20239;-67
2023/01/19 13:04:39;;;;;;;3.33;3.03;;;;;;;;;;5072860;28;20696;-67
2023/01/19 13:07:09;;;;;;;3.33;3.03;;;;;;;;;;5073627;28;20306;-67
2023/01/19 13:09:37;;;;;;;3.53;3.22;;;;;;;;;;5072980;28;20196;-67
2023/01/19 13:12:24;;;;;;;3.28;2.97;;;;;;;;;;5072457;28;20627;-66
2023/01/19 13:14:51;;;;;;;3.00;2.78;;;;;;;;;;5073956;28;20199;-67
2023/01/19 13:17:31;;;;;;;3.28;2.97;;;;;;;;;;5072742;28;20287;-66
2023/01/19 13:20:05;;;;;;;3.30;3.00;;;;;;;;;;5072729;28;20277;-67
2023/01/19 13:23:03;;;;;;;3.00;2.80;;;;;;;;;;5072602;28;20316;-67
2023/01/19 13:25:32;;;;;;;3.00;2.78;;;;;;;;;;5073118;28;20299;-67
2023/01/19 13:28:00;;;;;;;3.00;2.72;;;;;;;;;;5072270;28;20225;-67
2023/01/19 13:30:29;;;;;;;3.00;2.80;;;;;;;;;;5072884;28;20196;-66
2023/01/19 13:33:00;;;;;;;3.25;3.00;;;;;;;;;;5072921;28;20204;-66
2023/01/19 13:35:31;;;;;;;2.80;2.60;;;;;;;;;;5073093;28;20211;-66
2023/01/19 13:37:59;;;;;;;2.83;2.63;;;;;;;;;;5071207;28;20580;-67
2023/01/19 13:40:32;;;;;;;2.92;2.72;;;;;;;;;;5073038;28;20291;-67
2023/01/19 13:43:01;;;;;;;2.95;2.65;;;;;;;;;;5073154;28;20295;-66
2023/01/19 13:45:29;;;;;;;2.88;2.67;;;;;;;;;;5072704;28;20295;-66
2023/01/19 13:47:59;;;;;;;2.70;2.50;;;;;;;;;;5072871;28;20247;-67
2023/01/19 13:50:28;;;;;;;2.75;2.55;;;;;;;;;;5072968;28;20488;-66
2023/01/19 13:52:58;;;;;;;3.22;2.47;;;;;;;;;;5072932;28;20475;-67
2023/01/19 13:55:26;;;;;;;2.92;2.72;;;;;;;;;;5072773;28;20201;-66
2023/01/19 13:57:54;;;;;;;2.70;2.50;;;;;;;;;;5072163;28;20231;-66
2023/01/19 14:00:23;;;;;;;3.05;2.72;;;;;;;;;;5073338;28;20214;-67
2023/01/19 14:02:54;;;;;;;2.90;2.63;;;;;;;;;;5072672;28;20287;-66
2023/01/19 14:05:23;;;;;;;2.90;2.70;;;;;;;;;;5074984;28;20278;-66
2023/01/19 14:08:01;;;;;;;2.70;2.50;;;;;;;;;;5076164;28;20669;-66
2023/01/19 14:10:30;;;;;;;2.88;2.65;;;;;;;;;;5076760;28;20294;-66
2023/01/19 14:13:00;;;;;;;2.53;2.33;;;;;;;;;;5077182;28;20300;-66
2023/01/19 14:15:28;;;;;;;2.70;2.50;;;;;;;;;;5077377;28;20208;-66
2023/01/19 14:18:09;;;;;;;2.70;2.50;;;;;;;;;;5076826;28;20547;-67
2023/01/19 14:20:36;;;;;;;2.63;2.42;;;;;;;;;;5075769;28;20227;-66
2023/01/19 14:23:05;;;;;;;2.20;2.10;;;;;;;;;;5077621;28;20295;-66
2023/01/19 14:25:34;;;;;;;2.75;2.55;;;;;;;;;;5076104;28;20196;-66
2023/01/19 14:28:20;;;;;;;2.30;2.10;;;;;;;;;;5076475;28;20246;-66
2023/01/19 14:30:56;;;;;;;2.42;2.22;;;;;;;;;;5075319;28;20824;-66
2023/01/19 14:33:36;;;;;;;2.33;2.20;;;;;;;;;;5076079;28;20501;-67
2023/01/19 14:36:11;;;;;;;2.45;2.25;;;;;;;;;;5075431;28;20219;-66
2023/01/19 14:38:43;;;;;;;2.53;2.33;;;;;;;;;;5076131;28;20278;-67
2023/01/19 14:41:11;;;;;;;2.70;2.50;;;;;;;;;;5075609;28;20208;-66
2023/01/19 14:43:43;;;;;;;2.65;2.45;;;;;;;;;;5075755;28;20307;-66
2023/01/19 14:46:15;;;;;;;2.25;2.15;;;;;;;;;;5076657;28;20204;-67
2023/01/19 14:48:46;;;;;;;2.70;2.50;;;;;;;;;;5075478;28;20228;-66
2023/01/19 14:51:17;;;;;;;2.20;2.10;;;;;;;;;;5075599;28;20234;-66
2023/01/19 14:53:48;;;;;;;2.60;2.38;;;;;;;;;;5075467;28;20580;-66
2023/01/19 14:56:25;;;;;;;2.30;2.10;;;;;;;;;;5073996;28;20228;-66
2023/01/19 14:58:52;;;;;;;2.35;2.10;;;;;;;;;;5076040;28;20201;-66
2023/01/19 15:01:20;;;;;;;2.30;2.10;;;;;;;;;;5075930;28;20623;-66
2023/01/19 15:03:47;;;;;;;2.55;2.35;;;;;;;;;;5075056;28;20343;-67
2023/01/19 15:06:16;;;;;;;2.53;2.33;;;;;;;;;;5075818;28;20214;-67
2023/01/19 15:08:44;;;;;;;2.25;1.90;;;;;;;;;;5075693;28;20234;-66